Welcome to Northern Hawkes Bay. New Zealand.
PWS Header
      nz Flag



Hit Counter


W3C Valid W3C Valid logo


    Wairoa

Select any of the Stations below to visit their websites.










Historic Data from Weather Underground
Select the location of interest below. Wairoa is the default. Please have patience, this Data is slow to load in.
Northern Hawkes Bay Historical Data
Daily Summary for October 3, 2017 Units:  Metric    English   Both
« Previous Day
Next Day »
Daily Weekly Monthly Yearly Custom
  High: Low: Average:
Temperature: 21.6 °C 7.4 °C 13.7 °C
Dew Point: 11.1 °C 6.9 °C 8.8 °C
Humidity: 99% 43% 76%
Wind Speed: 13.4km/h 0.0km/h 4.2km/h
Wind Gust: 24.5km/h - -
Wind- - WNW
Pressure: 1019.9 hPa 1011.1 hPa -
Precipitation: 0.0 mm    
Historical Graphs
 
 
Tabular Data for October 3, 2017
Time Temperature Dew Point Pressure Wind Wind Speed Wind Gust Humidity Rainfall Rate (Hourly) solar
00:03 10.2 °C 9.3 °C 1011.1 hPa North 1.1 km/h 2.6 km/h 94% 0.0 mm 0 W/m2
00:08 10.0 °C 9.2 °C 1011.1 hPa North 2.6 km/h 5.0 km/h 95% 0.0 mm 0 W/m2
00:13 9.9 °C 9.3 °C 1011.4 hPa NNW 2.6 km/h 5.0 km/h 96% 0.0 mm 0 W/m2
00:18 9.8 °C 9.2 °C 1011.1 hPa NNW 1.1 km/h 5.0 km/h 96% 0.0 mm 0 W/m2
00:23 9.6 °C 9.0 °C 1011.4 hPa Calm   5.0 km/h 96% 0.0 mm 0 W/m2
00:28 9.5 °C 8.9 °C 1011.4 hPa NNE 1.1 km/h 3.5 km/h 96% 0.0 mm 0 W/m2
00:33 9.4 °C 8.9 °C 1011.4 hPa Calm   3.5 km/h 97% 0.0 mm 0 W/m2
00:38 9.3 °C 8.8 °C 1011.4 hPa Calm   2.6 km/h 97% 0.0 mm 0 W/m2
00:43 9.3 °C 8.8 °C 1011.1 hPa North 1.1 km/h 2.6 km/h 97% 0.0 mm 0 W/m2
00:48 9.1 °C 8.7 °C 1011.4 hPa NNW 2.6 km/h 3.5 km/h 97% 0.0 mm 0 W/m2
00:53 9.0 °C 8.6 °C 1011.4 hPa NNW 2.6 km/h 3.5 km/h 97% 0.0 mm 0 W/m2
00:58 8.9 °C 8.8 °C 1011.4 hPa NNW 2.6 km/h 3.5 km/h 99% 0.0 mm 0 W/m2
01:03 8.8 °C 8.7 °C 1011.4 hPa North 1.1 km/h 3.5 km/h 99% 0.0 mm 0 W/m2
01:08 8.7 °C 8.6 °C 1011.7 hPa North 1.1 km/h 3.5 km/h 99% 0.0 mm 0 W/m2
01:13 8.7 °C 8.6 °C 1011.4 hPa North 1.1 km/h 3.5 km/h 99% 0.0 mm 0 W/m2
01:32 8.7 °C 8.6 °C 1011.7 hPa Calm   5.0 km/h 99% 0.0 mm 0 W/m2
01:37 8.5 °C 8.3 °C 1012.1 hPa North 2.6 km/h 5.0 km/h 99% 0.0 mm 0 W/m2
01:42 8.5 °C 8.3 °C 1012.1 hPa NNW 2.6 km/h 5.0 km/h 99% 0.0 mm 0 W/m2
01:47 8.5 °C 8.3 °C 1011.7 hPa NNW 2.6 km/h 5.0 km/h 99% 0.0 mm 0 W/m2
01:52 8.5 °C 8.3 °C 1011.7 hPa North 2.6 km/h 5.0 km/h 99% 0.0 mm 0 W/m2
01:57 8.5 °C 8.3 °C 1011.7 hPa NNW 2.6 km/h 5.0 km/h 99% 0.0 mm 0 W/m2
02:02 8.5 °C 8.3 °C 1011.7 hPa Calm   5.0 km/h 99% 0.0 mm 0 W/m2
02:07 8.4 °C 8.3 °C 1011.7 hPa NNW 2.6 km/h 5.0 km/h 99% 0.0 mm 0 W/m2
02:12 8.4 °C 8.3 °C 1012.1 hPa NNW 1.1 km/h 5.0 km/h 99% 0.0 mm 0 W/m2
02:17 8.4 °C 8.3 °C 1012.1 hPa NNW 2.6 km/h 6.1 km/h 99% 0.0 mm 0 W/m2
02:22 8.4 °C 8.3 °C 1012.1 hPa NNW 1.1 km/h 6.1 km/h 99% 0.0 mm 0 W/m2
02:28 8.4 °C 8.3 °C 1012.1 hPa NNW 2.6 km/h 6.1 km/h 99% 0.0 mm 0 W/m2
02:33 8.4 °C 8.3 °C 1012.1 hPa NNW 3.5 km/h 6.1 km/h 99% 0.0 mm 0 W/m2
02:38 8.4 °C 8.3 °C 1012.1 hPa NNW 5.0 km/h 7.2 km/h 99% 0.0 mm 0 W/m2
02:43 8.4 °C 8.3 °C 1012.1 hPa NW 3.5 km/h 7.2 km/h 99% 0.0 mm 0 W/m2
02:48 8.3 °C 8.2 °C 1012.1 hPa NW 3.5 km/h 7.2 km/h 99% 0.0 mm 0 W/m2
02:53 8.2 °C 8.1 °C 1012.1 hPa NNW 2.6 km/h 7.2 km/h 99% 0.0 mm 0 W/m2
02:58 8.1 °C 7.9 °C 1012.1 hPa NNW 2.6 km/h 6.1 km/h 99% 0.0 mm 0 W/m2
03:03 8.1 °C 7.9 °C 1012.1 hPa NNW 1.1 km/h 6.1 km/h 99% 0.0 mm 0 W/m2
03:08 8.0 °C 7.8 °C 1012.1 hPa NNW 3.5 km/h 6.1 km/h 99% 0.0 mm 0 W/m2
03:13 8.0 °C 7.8 °C 1012.1 hPa NNW 2.6 km/h 7.2 km/h 99% 0.0 mm 0 W/m2
03:18 8.0 °C 7.8 °C 1012.1 hPa North 5.0 km/h 7.2 km/h 99% 0.0 mm 0 W/m2
03:23 8.0 °C 7.8 °C 1012.1 hPa NNW 3.5 km/h 8.7 km/h 99% 0.0 mm 0 W/m2
03:28 7.9 °C 7.4 °C 1012.1 hPa NNW 5.0 km/h 8.7 km/h 97% 0.0 mm 0 W/m2
03:33 7.9 °C 7.4 °C 1012.1 hPa NNW 5.0 km/h 7.2 km/h 97% 0.0 mm 0 W/m2
03:38 7.9 °C 7.4 °C 1012.4 hPa NW 5.0 km/h 8.7 km/h 97% 0.0 mm 0 W/m2
03:48 7.9 °C 7.4 °C 1012.1 hPa NW 6.1 km/h 8.7 km/h 97% 0.0 mm 0 W/m2
03:53 7.9 °C 7.4 °C 1012.4 hPa NW 5.0 km/h 9.7 km/h 97% 0.0 mm 0 W/m2
03:58 7.8 °C 7.3 °C 1012.4 hPa NW 6.1 km/h 9.7 km/h 97% 0.0 mm 0 W/m2
04:03 7.8 °C 7.3 °C 1012.4 hPa NW 6.1 km/h 9.7 km/h 97% 0.0 mm 0 W/m2
04:08 7.8 °C 7.3 °C 1012.8 hPa NW 6.1 km/h 9.7 km/h 97% 0.0 mm 0 W/m2
04:13 7.8 °C 7.3 °C 1012.4 hPa NNW 3.5 km/h 9.7 km/h 97% 0.0 mm 0 W/m2
04:18 7.7 °C 7.3 °C 1012.4 hPa NNW 3.5 km/h 8.7 km/h 97% 0.0 mm 0 W/m2
04:23 7.6 °C 7.2 °C 1012.4 hPa NW 5.0 km/h 7.2 km/h 97% 0.0 mm 0 W/m2
04:28 7.6 °C 7.2 °C 1012.8 hPa NW 5.0 km/h 7.2 km/h 97% 0.0 mm 0 W/m2
04:33 7.5 °C 7.1 °C 1012.8 hPa NW 5.0 km/h 7.2 km/h 97% 0.0 mm 0 W/m2
04:38 7.5 °C 7.1 °C 1012.8 hPa NW 3.5 km/h 7.2 km/h 97% 0.0 mm 0 W/m2
04:43 7.4 °C 6.9 °C 1012.8 hPa NNW 1.1 km/h 7.2 km/h 97% 0.0 mm 0 W/m2
04:48 7.4 °C 6.9 °C 1012.8 hPa NNW 1.1 km/h 5.0 km/h 97% 0.0 mm 0 W/m2
04:53 7.4 °C 6.9 °C 1012.8 hPa NNW 1.1 km/h 3.5 km/h 97% 0.0 mm 0 W/m2
04:58 7.4 °C 6.9 °C 1012.8 hPa NW 3.5 km/h 6.1 km/h 97% 0.0 mm 0 W/m2
05:03 7.4 °C 6.9 °C 1012.8 hPa NW 3.5 km/h 6.1 km/h 97% 0.0 mm 0 W/m2
05:08 7.5 °C 7.1 °C 1012.8 hPa NW 7.2 km/h 9.7 km/h 97% 0.0 mm 0 W/m2
05:14 7.5 °C 7.1 °C 1012.8 hPa NW 5.0 km/h 11.1 km/h 97% 0.0 mm 0 W/m2
05:19 7.6 °C 7.2 °C 1012.8 hPa NW 7.2 km/h 11.1 km/h 97% 0.0 mm 0 W/m2
05:24 7.7 °C 7.3 °C 1013.1 hPa NNW 7.2 km/h 12.2 km/h 97% 0.0 mm 0 W/m2
05:29 7.7 °C 7.3 °C 1013.1 hPa NW 6.1 km/h 12.2 km/h 97% 0.0 mm 0 W/m2
05:34 7.7 °C 7.3 °C 1013.1 hPa NNW 7.2 km/h 11.1 km/h 97% 0.0 mm 0 W/m2
05:39 7.7 °C 7.3 °C 1013.1 hPa NNW 7.2 km/h 11.1 km/h 97% 0.0 mm 0 W/m2
05:44 7.7 °C 7.3 °C 1013.1 hPa NNW 6.1 km/h 11.1 km/h 97% 0.0 mm 0 W/m2
05:49 7.8 °C 7.3 °C 1013.4 hPa NNW 5.0 km/h 11.1 km/h 97% 0.0 mm 0 W/m2
05:54 7.8 °C 7.3 °C 1013.4 hPa NNW 3.5 km/h 9.7 km/h 97% 0.0 mm 0 W/m2
05:59 7.9 °C 7.4 °C 1013.4 hPa NNW 5.0 km/h 11.1 km/h 97% 0.0 mm 0 W/m2
06:04 8.1 °C 7.9 °C 1013.4 hPa NNW 7.2 km/h 11.1 km/h 99% 0.0 mm 0 W/m2
06:09 8.2 °C 8.1 °C 1013.4 hPa NW 8.7 km/h 11.1 km/h 99% 0.0 mm 0 W/m2
06:14 7.9 °C 7.4 °C 1013.4 hPa NW 6.1 km/h 11.1 km/h 97% 0.0 mm 0 W/m2
06:19 7.7 °C 7.3 °C 1013.4 hPa NNW 5.0 km/h 11.1 km/h 97% 0.0 mm 0 W/m2
06:24 7.6 °C 7.2 °C 1013.4 hPa North 5.0 km/h 11.1 km/h 97% 0.0 mm 0 W/m2
06:29 7.6 °C 7.2 °C 1013.8 hPa NNW 3.5 km/h 8.7 km/h 97% 0.0 mm 0 W/m2
06:34 7.5 °C 7.1 °C 1013.8 hPa NNW 6.1 km/h 8.7 km/h 97% 0.0 mm 0 W/m2
06:39 7.4 °C 6.9 °C 1014.1 hPa North 5.0 km/h 7.2 km/h 97% 0.0 mm 0 W/m2
06:44 7.4 °C 6.9 °C 1014.1 hPa NNW 3.5 km/h 7.2 km/h 97% 0.0 mm 0 W/m2
06:49 7.4 °C 6.9 °C 1014.1 hPa NW 3.5 km/h 7.2 km/h 97% 0.0 mm 2 W/m2
06:54 7.4 °C 6.9 °C 1014.4 hPa NNW 6.1 km/h 8.7 km/h 97% 0.0 mm 5 W/m2
06:59 7.5 °C 7.1 °C 1014.4 hPa NNW 7.2 km/h 9.7 km/h 97% 0.0 mm 8 W/m2
07:04 7.6 °C 7.2 °C 1014.4 hPa NNW 5.0 km/h 9.7 km/h 97% 0.0 mm 13 W/m2
07:09 7.6 °C 7.2 °C 1014.8 hPa NNW 6.1 km/h 9.7 km/h 97% 0.0 mm 37 W/m2
07:14 7.9 °C 7.4 °C 1014.8 hPa North 6.1 km/h 12.2 km/h 97% 0.0 mm 49 W/m2
07:19 8.2 °C 8.1 °C 1014.8 hPa NNW 6.1 km/h 12.2 km/h 99% 0.0 mm 61 W/m2
07:24 8.5 °C 8.3 °C 1015.1 hPa NNW 5.0 km/h 13.4 km/h 99% 0.0 mm 74 W/m2
07:29 8.7 °C 8.6 °C 1015.1 hPa NNW 5.0 km/h 13.4 km/h 99% 0.0 mm 85 W/m2
07:34 9.0 °C 8.6 °C 1015.1 hPa NNW 5.0 km/h 9.7 km/h 97% 0.0 mm 97 W/m2
07:39 9.2 °C 8.4 °C 1015.1 hPa NNW 5.0 km/h 9.7 km/h 95% 0.0 mm 109 W/m2
07:44 9.8 °C 8.9 °C 1015.5 hPa North 3.5 km/h 9.7 km/h 94% 0.0 mm 124 W/m2
07:49 10.3 °C 9.1 °C 1015.5 hPa NNE 5.0 km/h 9.7 km/h 92% 0.0 mm 136 W/m2
07:54 10.7 °C 8.9 °C 1015.8 hPa NNE 1.1 km/h 8.7 km/h 89% 0.0 mm 145 W/m2
07:59 10.7 °C 8.4 °C 1015.8 hPa North 2.6 km/h 8.7 km/h 86% 0.0 mm 155 W/m2
08:04 11.0 °C 8.2 °C 1016.1 hPa NW 8.7 km/h 11.1 km/h 83% 0.0 mm 163 W/m2
08:09 10.8 °C 8.2 °C 1016.1 hPa NW 6.1 km/h 11.1 km/h 84% 0.0 mm 169 W/m2
08:14 11.0 °C 8.4 °C 1016.1 hPa NW 6.1 km/h 12.2 km/h 84% 0.0 mm 176 W/m2
08:19 11.1 °C 8.5 °C 1016.1 hPa NW 7.2 km/h 12.2 km/h 84% 0.0 mm 182 W/m2
08:24 11.4 °C 8.6 °C 1016.1 hPa NNW 9.7 km/h 13.4 km/h 83% 0.0 mm 187 W/m2
08:29 11.6 °C 8.6 °C 1016.1 hPa NNW 7.2 km/h 15.8 km/h 82% 0.0 mm 192 W/m2
08:34 11.9 °C 8.9 °C 1016.5 hPa NNW 8.7 km/h 15.8 km/h 82% 0.0 mm 199 W/m2
08:39 12.1 °C 8.8 °C 1016.5 hPa NW 6.1 km/h 14.8 km/h 80% 0.0 mm 205 W/m2
08:44 12.3 °C 8.8 °C 1016.5 hPa NW 9.7 km/h 14.8 km/h 79% 0.0 mm 209 W/m2
08:49 12.3 °C 8.8 °C 1016.5 hPa NNW 12.2 km/h 15.8 km/h 79% 0.0 mm 211 W/m2
08:54 12.4 °C 9.1 °C 1016.8 hPa North 8.7 km/h 15.8 km/h 80% 0.0 mm 218 W/m2
08:59 12.6 °C 9.2 °C 1016.8 hPa NNW 9.7 km/h 15.8 km/h 80% 0.0 mm 227 W/m2
09:04 13.2 °C 9.4 °C 1016.8 hPa NNW 6.1 km/h 15.8 km/h 78% 0.0 mm 237 W/m2
09:09 13.5 °C 9.3 °C 1016.8 hPa NNW 9.7 km/h 15.8 km/h 76% 0.0 mm 246 W/m2
09:14 13.8 °C 9.4 °C 1016.8 hPa NNW 8.7 km/h 18.3 km/h 75% 0.0 mm 254 W/m2
09:20 14.0 °C 9.1 °C 1016.8 hPa NNW 13.4 km/h 18.3 km/h 72% 0.0 mm 263 W/m2
09:25 14.5 °C 9.9 °C 1016.8 hPa NNW 11.1 km/h 18.3 km/h 74% 0.0 mm 276 W/m2
09:30 14.5 °C 9.7 °C 1016.8 hPa NNW 8.7 km/h 18.3 km/h 73% 0.0 mm 286 W/m2
09:35 14.9 °C 9.7 °C 1016.8 hPa NNW 8.7 km/h 24.5 km/h 71% 0.0 mm 297 W/m2
09:40 15.3 °C 9.9 °C 1016.8 hPa NNW 12.2 km/h 24.5 km/h 70% 0.0 mm 307 W/m2
09:45 15.3 °C 9.9 °C 1016.8 hPa NNW 9.7 km/h 20.9 km/h 70% 0.0 mm 314 W/m2
09:50 15.6 °C 10.4 °C 1016.8 hPa NNW 12.2 km/h 20.9 km/h 71% 0.0 mm 326 W/m2
09:55 16.1 °C 10.2 °C 1016.8 hPa NNW 9.7 km/h 18.3 km/h 68% 0.0 mm 325 W/m2
10:00 16.5 °C 10.3 °C 1016.8 hPa NNW 11.1 km/h 18.3 km/h 67% 0.0 mm 339 W/m2
10:05 16.7 °C 10.3 °C 1016.8 hPa NNW 11.1 km/h 18.3 km/h 66% 0.0 mm 349 W/m2
10:10 16.9 °C 10.3 °C 1017.2 hPa North 5.0 km/h 18.3 km/h 65% 0.0 mm 357 W/m2
10:15 17.2 °C 10.6 °C 1016.8 hPa NNW 7.2 km/h 15.8 km/h 65% 0.0 mm 86 W/m2
10:20 17.5 °C 10.2 °C 1016.8 hPa NNW 6.1 km/h 19.5 km/h 62% 0.0 mm 80 W/m2
10:25 17.9 °C 10.8 °C 1016.8 hPa North 9.7 km/h 19.5 km/h 63% 0.0 mm 79 W/m2
10:30 18.0 °C 9.1 °C 1017.2 hPa NNW 13.4 km/h 18.3 km/h 56% 0.0 mm 92 W/m2
10:35 18.1 °C 8.9 °C 1016.8 hPa NW 6.1 km/h 18.3 km/h 55% 0.0 mm 82 W/m2
10:40 18.5 °C 9.6 °C 1017.2 hPa NW 7.2 km/h 18.3 km/h 56% 0.0 mm 84 W/m2
10:45 18.3 °C 9.1 °C 1016.8 hPa NNW 11.1 km/h 18.3 km/h 55% 0.0 mm 386 W/m2
10:50 18.3 °C 8.8 °C 1017.2 hPa NW 11.1 km/h 18.3 km/h 54% 0.0 mm 330 W/m2
10:55 18.5 °C 9.0 °C 1016.8 hPa NNW 8.7 km/h 18.3 km/h 54% 0.0 mm 421 W/m2
11:00 18.3 °C 8.0 °C 1016.8 hPa NNW 9.7 km/h 19.5 km/h 51% 0.0 mm 456 W/m2
11:05 18.4 °C 8.7 °C 1016.8 hPa NNW 8.7 km/h 19.5 km/h 53% 0.0 mm 476 W/m2
11:10 18.5 °C 7.6 °C 1016.8 hPa NNW 6.1 km/h 19.5 km/h 49% 0.0 mm 509 W/m2
11:15 18.6 °C 7.7 °C 1016.8 hPa NW 9.7 km/h 19.5 km/h 49% 0.0 mm 508 W/m2
11:20 18.8 °C 7.9 °C 1016.8 hPa NW 5.0 km/h 17.2 km/h 49% 0.0 mm 536 W/m2
11:25 19.1 °C 8.2 °C 1016.8 hPa NW 6.1 km/h 14.8 km/h 49% 0.0 mm 245 W/m2
11:30 19.0 °C 8.1 °C 1016.8 hPa NNW 7.2 km/h 12.2 km/h 49% 0.0 mm 199 W/m2
11:35 18.7 °C 8.1 °C 1016.8 hPa Calm   13.4 km/h 50% 0.0 mm 185 W/m2
11:40 19.2 °C 9.1 °C 1016.8 hPa NNW 5.0 km/h 13.4 km/h 52% 0.0 mm 647 W/m2
11:45 19.6 °C 8.6 °C 1016.8 hPa WNW 3.5 km/h 14.8 km/h 49% 0.0 mm 290 W/m2
11:50 19.4 °C 8.4 °C 1016.8 hPa West 2.6 km/h 14.8 km/h 49% 0.0 mm 314 W/m2
11:55 19.5 °C 8.5 °C 1016.8 hPa WNW 5.0 km/h 14.8 km/h 49% 0.0 mm 722 W/m2
12:00 19.6 °C 8.3 °C 1016.8 hPa NW 3.5 km/h 14.8 km/h 48% 0.0 mm 621 W/m2
12:03 19.9 °C 8.6 °C 1016.8 hPa NW 6.1 km/h 14.8 km/h 48% 0.0 mm 665 W/m2
12:08 20.0 °C 8.1 °C 1016.8 hPa NW 11.1 km/h 13.4 km/h 46% 0.0 mm 411 W/m2
12:13 20.2 °C 8.2 °C 1016.8 hPa NW 1.1 km/h 13.4 km/h 46% 0.0 mm 734 W/m2
12:18 19.8 °C 7.6 °C 1016.5 hPa WNW 8.7 km/h 17.2 km/h 45% 0.0 mm 687 W/m2
12:23 20.0 °C 8.1 °C 1016.5 hPa West 5.0 km/h 17.2 km/h 46% 0.0 mm 811 W/m2
12:28 19.8 °C 7.8 °C 1016.5 hPa SSW 6.1 km/h 14.8 km/h 46% 0.0 mm 699 W/m2
12:33 19.8 °C 8.5 °C 1016.5 hPa South 6.1 km/h 12.2 km/h 48% 0.0 mm 208 W/m2
12:38 19.5 °C 7.9 °C 1016.5 hPa South 7.2 km/h 14.8 km/h 47% 0.0 mm 728 W/m2
12:44 19.2 °C 7.9 °C 1016.5 hPa South 5.0 km/h 14.8 km/h 48% 0.0 mm 631 W/m2
12:49 19.8 °C 8.2 °C 1016.5 hPa SSW 1.1 km/h 11.1 km/h 47% 0.0 mm 239 W/m2
12:54 19.8 °C 8.2 °C 1016.5 hPa South 2.6 km/h 11.1 km/h 47% 0.0 mm 736 W/m2
12:59 19.8 °C 8.2 °C 1016.5 hPa South 6.1 km/h 15.8 km/h 47% 0.0 mm 759 W/m2
13:04 20.2 °C 8.8 °C 1016.5 hPa South 12.2 km/h 15.8 km/h 48% 0.0 mm 689 W/m2
13:09 20.2 °C 7.9 °C 1016.5 hPa SSW 7.2 km/h 14.8 km/h 45% 0.0 mm 680 W/m2
13:14 20.2 °C 7.9 °C 1016.5 hPa South 9.7 km/h 17.2 km/h 45% 0.0 mm 700 W/m2
13:19 20.2 °C 7.6 °C 1016.5 hPa South 9.7 km/h 17.2 km/h 44% 0.0 mm 350 W/m2
13:24 20.1 °C 7.5 °C 1016.8 hPa South 9.7 km/h 17.2 km/h 44% 0.0 mm 425 W/m2
13:29 20.1 °C 8.4 °C 1016.5 hPa South 3.5 km/h 15.8 km/h 47% 0.0 mm 742 W/m2
13:34 20.5 °C 8.2 °C 1016.5 hPa South 5.0 km/h 14.8 km/h 45% 0.0 mm 306 W/m2
13:39 20.2 °C 8.2 °C 1016.5 hPa South 5.0 km/h 14.8 km/h 46% 0.0 mm 350 W/m2
13:44 20.0 °C 8.3 °C 1016.5 hPa South 7.2 km/h 12.2 km/h 47% 0.0 mm 689 W/m2
13:49 20.2 °C 8.6 °C 1016.5 hPa SSW 2.6 km/h 12.2 km/h 47% 0.0 mm 315 W/m2
13:54 20.3 °C 7.7 °C 1016.5 hPa South 5.0 km/h 11.1 km/h 44% 0.0 mm 539 W/m2
13:59 20.6 °C 7.9 °C 1016.5 hPa South 7.2 km/h 11.1 km/h 44% 0.0 mm 298 W/m2
14:04 20.0 °C 7.7 °C 1016.5 hPa South 6.1 km/h 12.2 km/h 45% 0.0 mm 177 W/m2
14:09 19.5 °C 9.1 °C 1016.5 hPa SSW 7.2 km/h 12.2 km/h 51% 0.0 mm 184 W/m2
14:14 19.4 °C 8.7 °C 1016.8 hPa SSW 11.1 km/h 15.8 km/h 50% 0.0 mm 279 W/m2
14:19 19.7 °C 9.0 °C 1016.5 hPa SSW 8.7 km/h 15.8 km/h 50% 0.0 mm 231 W/m2
14:24 19.4 °C 8.4 °C 1016.5 hPa SSW 5.0 km/h 15.8 km/h 49% 0.0 mm 518 W/m2
14:29 19.3 °C 8.9 °C 1016.5 hPa South 6.1 km/h 14.8 km/h 51% 0.0 mm 195 W/m2
14:34 19.5 °C 9.4 °C 1016.5 hPa SSW 5.0 km/h 13.4 km/h 52% 0.0 mm 283 W/m2
14:39 20.1 °C 8.8 °C 1016.5 hPa SSW 11.1 km/h 14.8 km/h 48% 0.0 mm 226 W/m2
14:44 19.8 °C 9.1 °C 1016.5 hPa South 6.1 km/h 14.8 km/h 50% 0.0 mm 192 W/m2
14:49 20.2 °C 9.8 °C 1016.5 hPa SSE 6.1 km/h 13.4 km/h 51% 0.0 mm 616 W/m2
14:59 20.8 °C 9.7 °C 1016.5 hPa SSE 7.2 km/h 12.2 km/h 49% 0.0 mm 222 W/m2
15:04 20.6 °C 8.6 °C 1016.5 hPa South 2.6 km/h 12.2 km/h 46% 0.0 mm 318 W/m2
15:09 20.7 °C 9.3 °C 1016.5 hPa SSW 12.2 km/h 13.4 km/h 48% 0.0 mm 414 W/m2
15:14 21.1 °C 9.1 °C 1016.5 hPa SSW 7.2 km/h 13.4 km/h 46% 0.0 mm 366 W/m2
15:19 20.6 °C 8.6 °C 1016.5 hPa South 2.6 km/h 13.4 km/h 46% 0.0 mm 112 W/m2
15:24 19.7 °C 8.7 °C 1016.1 hPa South 5.0 km/h 13.4 km/h 49% 0.0 mm 173 W/m2
15:29 19.2 °C 8.6 °C 1016.5 hPa South 5.0 km/h 12.2 km/h 50% 0.0 mm 127 W/m2
15:34 18.9 °C 8.6 °C 1016.5 hPa SSW 7.2 km/h 12.2 km/h 51% 0.0 mm 131 W/m2
15:40 18.8 °C 8.4 °C 1016.1 hPa SSW 5.0 km/h 11.1 km/h 51% 0.0 mm 151 W/m2
15:45 19.2 °C 9.1 °C 1016.1 hPa SSW 3.5 km/h 9.7 km/h 52% 0.0 mm 243 W/m2
15:46 19.5 °C 9.4 °C 1016.1 hPa South 5.0 km/h 9.7 km/h 52% 0.0 mm 232 W/m2
15:51 20.2 °C 8.8 °C 1016.1 hPa SSW 8.7 km/h 11.1 km/h 48% 0.0 mm 435 W/m2
15:56 21.1 °C 8.4 °C 1016.1 hPa South 3.5 km/h 11.1 km/h 44% 0.0 mm 512 W/m2
16:01 20.8 °C 8.1 °C 1016.1 hPa South 6.1 km/h 11.1 km/h 44% 0.0 mm 162 W/m2
16:06 19.7 °C 8.1 °C 1016.1 hPa South 9.7 km/h 14.8 km/h 47% 0.0 mm 174 W/m2
16:12 19.2 °C 8.8 °C 1016.5 hPa SSW 9.7 km/h 14.8 km/h 51% 0.0 mm 196 W/m2
16:20 18.8 °C 8.4 °C 1016.1 hPa SSW 7.2 km/h 12.2 km/h 51% 0.0 mm 95 W/m2
16:24 18.5 °C 8.4 °C 1016.1 hPa SSW 5.0 km/h 14.8 km/h 52% 0.0 mm 108 W/m2
16:26 18.5 °C 8.4 °C 1016.1 hPa SSW 3.5 km/h 14.8 km/h 52% 0.0 mm 121 W/m2
16:31 18.5 °C 9.0 °C 1016.1 hPa SW 3.5 km/h 14.8 km/h 54% 0.0 mm 114 W/m2
16:32 18.5 °C 9.3 °C 1016.1 hPa SW 3.5 km/h 9.7 km/h 55% 0.0 mm 114 W/m2
16:36 18.4 °C 8.9 °C 1016.1 hPa SW 3.5 km/h 8.7 km/h 54% 0.0 mm 112 W/m2
16:41 18.6 °C 9.4 °C 1016.1 hPa Calm   7.2 km/h 55% 0.0 mm 149 W/m2
16:46 19.0 °C 8.9 °C 1016.1 hPa South 3.5 km/h 8.7 km/h 52% 0.0 mm 135 W/m2
17:03 19.9 °C 8.9 °C 1016.5 hPa Calm   6.1 km/h 49% 0.0 mm 114 W/m2
17:04 19.8 °C 8.8 °C 1016.5 hPa Calm   6.1 km/h 49% 0.0 mm 120 W/m2
17:09 19.4 °C 9.0 °C 1016.5 hPa Calm   5.0 km/h 51% 0.0 mm 97 W/m2
17:14 19.5 °C 9.7 °C 1016.5 hPa Calm   3.5 km/h 53% 0.0 mm 86 W/m2
17:24 19.3 °C 9.2 °C 1016.8 hPa Calm   1.1 km/h 52% 0.0 mm 99 W/m2
17:30 19.3 °C 8.6 °C 1016.8 hPa Calm     50% 0.0 mm 116 W/m2
17:35 20.1 °C 9.7 °C 1016.8 hPa Calm   1.1 km/h 51% 0.0 mm 195 W/m2
17:40 21.6 °C 9.2 °C 1016.8 hPa Calm   2.6 km/h 45% 0.0 mm 174 W/m2
17:45 21.6 °C 8.5 °C 1016.8 hPa Calm   2.6 km/h 43% 0.0 mm 67 W/m2
17:50 20.3 °C 8.0 °C 1016.8 hPa Calm   2.6 km/h 45% 0.0 mm 79 W/m2
17:55 20.2 °C 8.2 °C 1016.8 hPa Calm   1.1 km/h 46% 0.0 mm 94 W/m2
18:00 20.0 °C 8.3 °C 1016.8 hPa Calm   1.1 km/h 47% 0.0 mm 83 W/m2
18:05 19.5 °C 8.8 °C 1017.2 hPa Calm   3.5 km/h 50% 0.0 mm 68 W/m2
18:10 19.5 °C 9.4 °C 1017.2 hPa Calm   3.5 km/h 52% 0.0 mm 75 W/m2
18:15 19.8 °C 9.1 °C 1017.2 hPa Calm   2.6 km/h 50% 0.0 mm 41 W/m2
18:20 19.4 °C 8.1 °C 1017.2 hPa Calm   2.6 km/h 48% 0.0 mm 47 W/m2
18:25 19.1 °C 8.4 °C 1017.2 hPa Calm     50% 0.0 mm 37 W/m2
18:30 18.7 °C 8.1 °C 1017.5 hPa Calm     50% 0.0 mm 31 W/m2
18:35 18.6 °C 8.3 °C 1017.2 hPa Calm     51% 0.0 mm 30 W/m2
18:40 18.3 °C 8.3 °C 1017.2 hPa Calm     52% 0.0 mm 29 W/m2
18:45 18.2 °C 9.0 °C 1017.5 hPa Calm     55% 0.0 mm 24 W/m2
18:50 18.0 °C 8.8 °C 1017.5 hPa Calm     55% 0.0 mm 17 W/m2
18:55 17.6 °C 9.8 °C 1017.5 hPa Calm     60% 0.0 mm 12 W/m2
19:00 17.1 °C 10.2 °C 1017.5 hPa Calm     64% 0.0 mm 8 W/m2
19:05 16.7 °C 11.0 °C 1017.5 hPa Calm     69% 0.0 mm 5 W/m2
19:10 16.4 °C 11.1 °C 1017.5 hPa Calm     71% 0.0 mm 2 W/m2
19:16 15.9 °C 10.9 °C 1017.8 hPa Calm     72% 0.0 mm 0 W/m2
19:21 15.6 °C 10.8 °C 1017.8 hPa Calm     73% 0.0 mm 0 W/m2
19:26 15.4 °C 11.0 °C 1017.8 hPa Calm   1.1 km/h 75% 0.0 mm 0 W/m2
19:36 14.9 °C 10.9 °C 1017.8 hPa Calm   1.1 km/h 77% 0.0 mm 0 W/m2
19:41 14.8 °C 11.0 °C 1017.8 hPa Calm   1.1 km/h 78% 0.0 mm 0 W/m2
19:46 14.7 °C 10.9 °C 1017.8 hPa Calm   1.1 km/h 78% 0.0 mm 0 W/m2
19:51 14.4 °C 10.6 °C 1017.8 hPa Calm     78% 0.0 mm 0 W/m2
19:56 14.2 °C 10.6 °C 1018.2 hPa Calm     79% 0.0 mm 0 W/m2
20:01 14.2 °C 10.8 °C 1018.2 hPa Calm     80% 0.0 mm 0 W/m2
20:06 14.0 °C 10.8 °C 1018.2 hPa Calm     81% 0.0 mm 0 W/m2
20:09 13.9 °C 10.9 °C 1018.2 hPa Calm     82% 0.0 mm 0 W/m2
20:14 13.6 °C 10.4 °C 1018.2 hPa Calm     81% 0.0 mm 0 W/m2
20:19 13.6 °C 10.8 °C 1018.2 hPa Calm   1.1 km/h 83% 0.0 mm 0 W/m2
20:25 13.5 °C 10.8 °C 1018.5 hPa Calm   1.1 km/h 84% 0.0 mm 0 W/m2
20:30 13.4 °C 10.9 °C 1018.5 hPa Calm     85% 0.0 mm 0 W/m2
20:35 13.2 °C 10.7 °C 1018.5 hPa Calm   1.1 km/h 85% 0.0 mm 0 W/m2
20:40 12.9 °C 10.6 °C 1018.5 hPa Calm   1.1 km/h 86% 0.0 mm 0 W/m2
20:45 12.7 °C 10.4 °C 1018.8 hPa Calm     86% 0.0 mm 0 W/m2
20:50 12.5 °C 10.4 °C 1018.8 hPa Calm     87% 0.0 mm 0 W/m2
20:55 12.4 °C 10.4 °C 1018.8 hPa Calm     88% 0.0 mm 0 W/m2
21:00 12.2 °C 10.4 °C 1018.8 hPa NNW 2.6 km/h 3.5 km/h 89% 0.0 mm 0 W/m2
21:05 12.2 °C 10.6 °C 1018.8 hPa NW 2.6 km/h 5.0 km/h 90% 0.0 mm 0 W/m2
21:10 12.3 °C 10.9 °C 1018.8 hPa NW 1.1 km/h 5.0 km/h 91% 0.0 mm 0 W/m2
21:15 12.3 °C 10.9 °C 1018.8 hPa NNW 1.1 km/h 3.5 km/h 91% 0.0 mm 0 W/m2
21:20 12.2 °C 10.8 °C 1018.8 hPa NNW 1.1 km/h 3.5 km/h 91% 0.0 mm 0 W/m2
21:25 12.0 °C 10.6 °C 1018.8 hPa Calm   2.6 km/h 91% 0.0 mm 0 W/m2
21:30 11.8 °C 10.6 °C 1018.8 hPa Calm   2.6 km/h 92% 0.0 mm 0 W/m2
21:35 11.7 °C 10.4 °C 1018.8 hPa Calm   2.6 km/h 92% 0.0 mm 0 W/m2
21:40 11.6 °C 10.5 °C 1019.2 hPa North 1.1 km/h 3.5 km/h 93% 0.0 mm 0 W/m2
21:45 11.5 °C 10.4 °C 1019.2 hPa NNW 2.6 km/h 5.0 km/h 93% 0.0 mm 0 W/m2
21:50 11.5 °C 10.6 °C 1019.2 hPa NNW 3.5 km/h 6.1 km/h 94% 0.0 mm 0 W/m2
21:55 11.4 °C 10.4 °C 1019.2 hPa NW 2.6 km/h 6.1 km/h 94% 0.0 mm 0 W/m2
22:00 11.4 °C 10.4 °C 1019.2 hPa NW 3.5 km/h 6.1 km/h 94% 0.0 mm 0 W/m2
22:05 11.3 °C 10.6 °C 1019.2 hPa NW 3.5 km/h 6.1 km/h 95% 0.0 mm 0 W/m2
22:10 11.2 °C 10.4 °C 1019.2 hPa NW 2.6 km/h 7.2 km/h 95% 0.0 mm 0 W/m2
22:15 11.2 °C 10.4 °C 1019.5 hPa NW 1.1 km/h 7.2 km/h 95% 0.0 mm 0 W/m2
22:20 11.0 °C 10.2 °C 1019.5 hPa NNW 2.6 km/h 6.1 km/h 95% 0.0 mm 0 W/m2
22:25 11.0 °C 10.2 °C 1019.2 hPa NNW 3.5 km/h 5.0 km/h 95% 0.0 mm 0 W/m2
22:30 11.0 °C 10.2 °C 1019.5 hPa NW 3.5 km/h 5.0 km/h 95% 0.0 mm 0 W/m2
22:35 11.0 °C 10.4 °C 1019.2 hPa NNW 2.6 km/h 6.1 km/h 96% 0.0 mm 0 W/m2
22:40 10.9 °C 10.4 °C 1019.2 hPa NNW 3.5 km/h 6.1 km/h 97% 0.0 mm 0 W/m2
22:45 10.8 °C 10.3 °C 1019.5 hPa NW 2.6 km/h 6.1 km/h 97% 0.0 mm 0 W/m2
22:50 10.8 °C 10.5 °C 1019.5 hPa NW 2.6 km/h 6.1 km/h 98% 0.0 mm 0 W/m2
22:55 10.7 °C 10.4 °C 1019.5 hPa NNW 3.5 km/h 6.1 km/h 98% 0.0 mm 0 W/m2
23:00 10.6 °C 10.3 °C 1019.5 hPa NNW 3.5 km/h 6.1 km/h 98% 0.0 mm 0 W/m2
23:05 10.6 °C 10.3 °C 1019.5 hPa NNW 3.5 km/h 6.1 km/h 98% 0.0 mm 0 W/m2
23:10 10.5 °C 10.3 °C 1019.5 hPa NW 5.0 km/h 6.1 km/h 99% 0.0 mm 0 W/m2
23:15 10.5 °C 10.3 °C 1019.5 hPa NW 2.6 km/h 7.2 km/h 99% 0.0 mm 0 W/m2
23:20 10.4 °C 10.3 °C 1019.5 hPa NW 5.0 km/h 7.2 km/h 99% 0.0 mm 0 W/m2
23:25 10.3 °C 10.2 °C 1019.5 hPa NNW 2.6 km/h 7.2 km/h 99% 0.0 mm 0 W/m2
23:30 10.3 °C 10.2 °C 1019.5 hPa NW 3.5 km/h 7.2 km/h 99% 0.0 mm 0 W/m2
23:35 10.3 °C 10.2 °C 1019.5 hPa NW 5.0 km/h 8.7 km/h 99% 0.0 mm 0 W/m2
23:40 10.4 °C 10.3 °C 1019.9 hPa NW 3.5 km/h 8.7 km/h 99% 0.0 mm 0 W/m2
23:45 10.3 °C 10.2 °C 1019.9 hPa NW 2.6 km/h 8.7 km/h 99% 0.0 mm 0 W/m2
23:50 10.2 °C 10.1 °C 1019.9 hPa NNW 2.6 km/h 6.1 km/h 99% 0.0 mm 0 W/m2
23:55 10.1 °C 9.9 °C 1019.9 hPa NNW 2.6 km/h 5.0 km/h 99% 0.0 mm 0 W/m2
Northern Hawkes Bay. New Zealand Historic Data
Compliments of Weather Underground - 2 mb